sensor_id;sensor_type;location;lat;lon;timestamp;pressure;altitude;pressure_sealevel;temperature;humidity
73633;BME280;61927;50.080;14.418;2023-06-14T00:00:40;99275.25;;;14.22;63.68
73633;BME280;61927;50.080;14.418;2023-06-14T00:03:26;99280.59;;;14.22;63.52
73633;BME280;61927;50.080;14.418;2023-06-14T00:05:52;99278.28;;;14.17;63.72
73633;BME280;61927;50.080;14.418;2023-06-14T00:08:17;99280.47;;;14.12;63.78
73633;BME280;61927;50.080;14.418;2023-06-14T00:10:44;99288.59;;;14.00;63.93
73633;BME280;61927;50.080;14.418;2023-06-14T00:13:10;99285.41;;;13.83;64.80
73633;BME280;61927;50.080;14.418;2023-06-14T00:15:36;99288.94;;;13.84;64.93
73633;BME280;61927;50.080;14.418;2023-06-14T00:18:03;99281.53;;;13.87;65.02
73633;BME280;61927;50.080;14.418;2023-06-14T00:20:29;99284.94;;;13.89;64.75
73633;BME280;61927;50.080;14.418;2023-06-14T00:22:56;99282.28;;;13.89;65.01
73633;BME280;61927;50.080;14.418;2023-06-14T00:25:23;99286.28;;;13.95;64.75
73633;BME280;61927;50.080;14.418;2023-06-14T00:27:51;99289.44;;;14.00;64.92
73633;BME280;61927;50.080;14.418;2023-06-14T00:30:16;99281.91;;;14.05;63.74
73633;BME280;61927;50.080;14.418;2023-06-14T00:32:43;99279.63;;;14.12;63.24
73633;BME280;61927;50.080;14.418;2023-06-14T00:35:09;99278.41;;;14.16;63.07
73633;BME280;61927;50.080;14.418;2023-06-14T00:37:36;99279.75;;;14.21;62.60
73633;BME280;61927;50.080;14.418;2023-06-14T00:40:02;99283.25;;;14.22;61.91
73633;BME280;61927;50.080;14.418;2023-06-14T00:42:30;99278.03;;;14.20;62.26
73633;BME280;61927;50.080;14.418;2023-06-14T00:44:55;99282.03;;;14.26;62.38
73633;BME280;61927;50.080;14.418;2023-06-14T00:47:22;99282.66;;;14.18;61.81
73633;BME280;61927;50.080;14.418;2023-06-14T00:49:49;99282.53;;;13.98;62.10
73633;BME280;61927;50.080;14.418;2023-06-14T00:52:17;99288.81;;;13.85;62.88
73633;BME280;61927;50.080;14.418;2023-06-14T00:54:43;99287.47;;;13.80;62.80
73633;BME280;61927;50.080;14.418;2023-06-14T00:57:10;99285.53;;;13.82;62.50
73633;BME280;61927;50.080;14.418;2023-06-14T00:59:47;99283.72;;;13.82;62.75
73633;BME280;61927;50.080;14.418;2023-06-14T01:02:13;99271.00;;;13.86;61.89
73633;BME280;61927;50.080;14.418;2023-06-14T01:04:45;99267.59;;;13.84;62.01
73633;BME280;61927;50.080;14.418;2023-06-14T01:10:16;99268.34;;;13.86;62.21
73633;BME280;61927;50.080;14.418;2023-06-14T01:12:56;99273.53;;;13.87;61.80
73633;BME280;61927;50.080;14.418;2023-06-14T01:15:24;99274.28;;;13.89;62.14
73633;BME280;61927;50.080;14.418;2023-06-14T01:17:50;99270.75;;;13.89;62.54
73633;BME280;61927;50.080;14.418;2023-06-14T01:20:28;99277.78;;;14.01;62.06
73633;BME280;61927;50.080;14.418;2023-06-14T01:22:55;99270.16;;;13.97;62.70
73633;BME280;61927;50.080;14.418;2023-06-14T01:25:21;99276.81;;;13.91;62.63
73633;BME280;61927;50.080;14.418;2023-06-14T01:27:49;99269.28;;;13.85;63.24
73633;BME280;61927;50.080;14.418;2023-06-14T01:30:16;99271.72;;;13.77;63.82
73633;BME280;61927;50.080;14.418;2023-06-14T01:32:43;99271.22;;;13.72;64.08
73633;BME280;61927;50.080;14.418;2023-06-14T01:35:10;99278.09;;;13.52;64.54
73633;BME280;61927;50.080;14.418;2023-06-14T01:37:36;99273.81;;;13.38;65.48
73633;BME280;61927;50.080;14.418;2023-06-14T01:40:03;99277.91;;;13.31;65.55
73633;BME280;61927;50.080;14.418;2023-06-14T01:42:34;99279.50;;;13.10;66.98
73633;BME280;61927;50.080;14.418;2023-06-14T01:45:02;99277.63;;;12.99;67.38
73633;BME280;61927;50.080;14.418;2023-06-14T01:47:27;99277.97;;;12.94;67.76
73633;BME280;61927;50.080;14.418;2023-06-14T01:49:53;99272.81;;;12.80;68.68
73633;BME280;61927;50.080;14.418;2023-06-14T01:52:19;99277.00;;;12.72;68.92
73633;BME280;61927;50.080;14.418;2023-06-14T01:54:45;99279.38;;;12.64;69.63
73633;BME280;61927;50.080;14.418;2023-06-14T01:57:11;99286.56;;;12.50;70.42
73633;BME280;61927;50.080;14.418;2023-06-14T01:59:37;99284.63;;;12.52;70.59
73633;BME280;61927;50.080;14.418;2023-06-14T02:02:03;99282.03;;;12.64;70.46
73633;BME280;61927;50.080;14.418;2023-06-14T02:04:29;99285.22;;;12.69;70.53
73633;BME280;61927;50.080;14.418;2023-06-14T02:06:54;99280.75;;;12.69;70.15
73633;BME280;61927;50.080;14.418;2023-06-14T02:09:20;99285.84;;;12.72;70.62
73633;BME280;61927;50.080;14.418;2023-06-14T02:11:46;99283.28;;;12.71;71.11
73633;BME280;61927;50.080;14.418;2023-06-14T02:14:11;99283.59;;;12.79;71.34
73633;BME280;61927;50.080;14.418;2023-06-14T02:16:37;99288.91;;;12.79;71.39
73633;BME280;61927;50.080;14.418;2023-06-14T02:19:04;99293.59;;;12.75;71.38
73633;BME280;61927;50.080;14.418;2023-06-14T02:21:30;99287.47;;;12.62;72.11
73633;BME280;61927;50.080;14.418;2023-06-14T02:23:56;99290.63;;;12.43;72.93
73633;BME280;61927;50.080;14.418;2023-06-14T02:26:21;99290.66;;;12.31;73.41
73633;BME280;61927;50.080;14.418;2023-06-14T02:28:50;99293.75;;;12.12;74.41
73633;BME280;61927;50.080;14.418;2023-06-14T02:31:16;99295.38;;;12.02;75.05
73633;BME280;61927;50.080;14.418;2023-06-14T02:33:42;99302.72;;;11.98;75.43
73633;BME280;61927;50.080;14.418;2023-06-14T02:36:07;99293.34;;;11.92;75.90
73633;BME280;61927;50.080;14.418;2023-06-14T02:38:33;99299.19;;;11.98;75.73
73633;BME280;61927;50.080;14.418;2023-06-14T02:40:59;99306.44;;;12.08;75.21
73633;BME280;61927;50.080;14.418;2023-06-14T02:43:28;99302.91;;;12.20;74.59
73633;BME280;61927;50.080;14.418;2023-06-14T02:45:55;99300.13;;;12.22;74.25
73633;BME280;61927;50.080;14.418;2023-06-14T02:48:20;99302.91;;;12.20;74.59
73633;BME280;61927;50.080;14.418;2023-06-14T02:50:46;99308.66;;;12.02;74.69
73633;BME280;61927;50.080;14.418;2023-06-14T02:53:11;99312.50;;;11.85;75.67
73633;BME280;61927;50.080;14.418;2023-06-14T02:55:37;99311.75;;;11.83;75.39
73633;BME280;61927;50.080;14.418;2023-06-14T02:58:05;99312.50;;;11.85;75.15
73633;BME280;61927;50.080;14.418;2023-06-14T03:00:31;99320.06;;;11.91;74.77
73633;BME280;61927;50.080;14.418;2023-06-14T03:02:57;99318.66;;;11.98;74.35
73633;BME280;61927;50.080;14.418;2023-06-14T03:05:22;99321.53;;;11.95;74.32
73633;BME280;61927;50.080;14.418;2023-06-14T03:07:49;99319.09;;;11.92;74.26
73633;BME280;61927;50.080;14.418;2023-06-14T03:10:15;99316.97;;;11.97;74.26
73633;BME280;61927;50.080;14.418;2023-06-14T03:12:41;99316.00;;;11.98;74.19
73633;BME280;61927;50.080;14.418;2023-06-14T03:15:07;99318.88;;;11.95;73.93
73633;BME280;61927;50.080;14.418;2023-06-14T03:17:34;99328.66;;;11.94;73.95
73633;BME280;61927;50.080;14.418;2023-06-14T03:20:01;99320.69;;;11.82;73.95
73633;BME280;61927;50.080;14.418;2023-06-14T03:22:27;99320.34;;;11.74;74.30
73633;BME280;61927;50.080;14.418;2023-06-14T03:24:54;99317.88;;;11.71;74.57
73633;BME280;61927;50.080;14.418;2023-06-14T03:27:20;99321.81;;;11.65;74.76
73633;BME280;61927;50.080;14.418;2023-06-14T03:29:46;99327.00;;;11.54;74.96
73633;BME280;61927;50.080;14.418;2023-06-14T03:32:12;99323.69;;;11.50;75.09
73633;BME280;61927;50.080;14.418;2023-06-14T03:34:37;99331.69;;;11.50;75.01
73633;BME280;61927;50.080;14.418;2023-06-14T03:37:06;99341.56;;;11.48;75.09
73633;BME280;61927;50.080;14.418;2023-06-14T03:39:32;99340.81;;;11.46;75.12
73633;BME280;61927;50.080;14.418;2023-06-14T03:41:57;99340.81;;;11.46;75.40
73633;BME280;61927;50.080;14.418;2023-06-14T03:44:23;99348.69;;;11.48;75.49
73633;BME280;61927;50.080;14.418;2023-06-14T03:46:48;99352.19;;;11.48;75.69
73633;BME280;61927;50.080;14.418;2023-06-14T03:49:14;99352.09;;;11.50;75.62
73633;BME280;61927;50.080;14.418;2023-06-14T03:51:42;99359.75;;;11.54;75.38
73633;BME280;61927;50.080;14.418;2023-06-14T03:54:07;99359.31;;;11.48;75.19
73633;BME280;61927;50.080;14.418;2023-06-14T03:56:33;99358.66;;;11.44;75.73
73633;BME280;61927;50.080;14.418;2023-06-14T03:58:59;99365.25;;;11.51;75.73
73633;BME280;61927;50.080;14.418;2023-06-14T04:01:24;99362.41;;;11.54;75.38
73633;BME280;61927;50.080;14.418;2023-06-14T04:03:50;99355.72;;;11.61;75.47
73633;BME280;61927;50.080;14.418;2023-06-14T04:06:16;99366.44;;;11.60;74.90
73633;BME280;61927;50.080;14.418;2023-06-14T04:08:44;99362.06;;;11.46;75.26
73633;BME280;61927;50.080;14.418;2023-06-14T04:11:11;99371.09;;;11.44;75.46
73633;BME280;61927;50.080;14.418;2023-06-14T04:13:36;99361.72;;;11.38;75.43
73633;BME280;61927;50.080;14.418;2023-06-14T04:16:04;99364.78;;;11.32;75.35
73633;BME280;61927;50.080;14.418;2023-06-14T04:18:30;99364.03;;;11.30;75.54
73633;BME280;61927;50.080;14.418;2023-06-14T04:20:55;99365.44;;;11.36;75.54
73633;BME280;61927;50.080;14.418;2023-06-14T04:23:22;99368.53;;;11.42;75.61
73633;BME280;61927;50.080;14.418;2023-06-14T04:25:47;99362.59;;;11.51;74.76
73633;BME280;61927;50.080;14.418;2023-06-14T04:28:15;99359.97;;;11.64;74.42
73633;BME280;61927;50.080;14.418;2023-06-14T04:30:42;99362.47;;;11.80;73.72
73633;BME280;61927;50.080;14.418;2023-06-14T04:33:07;99364.19;;;11.93;72.99
73633;BME280;61927;50.080;14.418;2023-06-14T04:35:35;99362.38;;;12.07;72.13
73633;BME280;61927;50.080;14.418;2023-06-14T04:38:03;99365.47;;;12.13;71.77
73633;BME280;61927;50.080;14.418;2023-06-14T04:40:35;99363.44;;;12.17;71.81
73633;BME280;61927;50.080;14.418;2023-06-14T04:43:11;99365.47;;;12.13;71.81
73633;BME280;61927;50.080;14.418;2023-06-14T04:45:42;99363.44;;;12.17;72.02
73633;BME280;61927;50.080;14.418;2023-06-14T04:48:10;99363.13;;;12.21;71.92
73633;BME280;61927;50.080;14.418;2023-06-14T04:50:37;99364.41;;;12.28;71.20
73633;BME280;61927;50.080;14.418;2023-06-14T04:53:03;99372.28;;;12.30;70.97
73633;BME280;61927;50.080;14.418;2023-06-14T04:55:28;99379.19;;;12.33;70.84
73633;BME280;61927;50.080;14.418;2023-06-14T04:57:54;99369.81;;;12.40;70.88
73633;BME280;61927;50.080;14.418;2023-06-14T05:00:20;99373.53;;;12.50;70.50
73633;BME280;61927;50.080;14.418;2023-06-14T05:02:47;99360.31;;;12.61;70.21
73633;BME280;61927;50.080;14.418;2023-06-14T05:05:12;99362.97;;;12.61;70.01
73633;BME280;61927;50.080;14.418;2023-06-14T05:07:38;99366.47;;;12.74;69.55
73633;BME280;61927;50.080;14.418;2023-06-14T05:10:04;99363.88;;;12.85;68.78
73633;BME280;61927;50.080;14.418;2023-06-14T05:12:30;99372.66;;;12.99;68.22
73633;BME280;61927;50.080;14.418;2023-06-14T05:14:56;99369.66;;;13.03;68.49
73633;BME280;61927;50.080;14.418;2023-06-14T05:17:24;99367.75;;;13.05;68.10
73633;BME280;61927;50.080;14.418;2023-06-14T05:19:49;99374.16;;;13.03;68.13
73633;BME280;61927;50.080;14.418;2023-06-14T05:22:15;99378.50;;;13.16;68.19
73633;BME280;61927;50.080;14.418;2023-06-14T05:24:40;99372.66;;;13.35;67.14
73633;BME280;61927;50.080;14.418;2023-06-14T05:27:07;99373.31;;;13.50;66.22
73633;BME280;61927;50.080;14.418;2023-06-14T05:29:33;99375.91;;;13.63;65.20
73633;BME280;61927;50.080;14.418;2023-06-14T05:31:59;99379.25;;;13.77;65.13
73633;BME280;61927;50.080;14.418;2023-06-14T05:34:25;99382.78;;;13.89;64.00
73633;BME280;61927;50.080;14.418;2023-06-14T05:36:50;99381.59;;;14.04;64.09
73633;BME280;61927;50.080;14.418;2023-06-14T05:39:16;99380.03;;;14.13;63.52
73633;BME280;61927;50.080;14.418;2023-06-14T05:41:42;99376.66;;;14.22;63.40
73633;BME280;61927;50.080;14.418;2023-06-14T05:44:08;99387.50;;;14.43;63.19
73633;BME280;61927;50.080;14.418;2023-06-14T05:46:34;99382.66;;;14.48;61.69
73633;BME280;61927;50.080;14.418;2023-06-14T05:49:00;99378.13;;;14.37;62.01
73633;BME280;61927;50.080;14.418;2023-06-14T05:51:26;99379.50;;;14.43;62.13
73633;BME280;61927;50.080;14.418;2023-06-14T05:53:51;99379.50;;;14.43;61.96
73633;BME280;61927;50.080;14.418;2023-06-14T05:56:18;99376.34;;;14.49;61.77
73633;BME280;61927;50.080;14.418;2023-06-14T05:58:45;99379.75;;;14.62;61.91
73633;BME280;61927;50.080;14.418;2023-06-14T06:01:10;99379.72;;;14.84;60.95
73633;BME280;61927;50.080;14.418;2023-06-14T06:03:36;99375.19;;;15.07;60.47
73633;BME280;61927;50.080;14.418;2023-06-14T06:06:02;99383.03;;;15.31;59.52
73633;BME280;61927;50.080;14.418;2023-06-14T06:08:28;99387.22;;;15.45;59.18
73633;BME280;61927;50.080;14.418;2023-06-14T06:10:54;99385.50;;;15.55;58.68
73633;BME280;61927;50.080;14.418;2023-06-14T06:13:19;99396.56;;;15.62;57.97
73633;BME280;61927;50.080;14.418;2023-06-14T06:15:45;99396.56;;;15.62;58.60
73633;BME280;61927;50.080;14.418;2023-06-14T06:18:11;99396.81;;;15.59;58.53
73633;BME280;61927;50.080;14.418;2023-06-14T06:20:37;99403.22;;;15.56;58.73
73633;BME280;61927;50.080;14.418;2023-06-14T06:23:03;99405.81;;;15.58;58.69
73633;BME280;61927;50.080;14.418;2023-06-14T06:25:28;99418.47;;;15.44;58.82
73633;BME280;61927;50.080;14.418;2023-06-14T06:27:56;99419.56;;;15.42;59.32
73633;BME280;61927;50.080;14.418;2023-06-14T06:30:22;99422.25;;;15.42;58.83
73633;BME280;61927;50.080;14.418;2023-06-14T06:32:47;99418.06;;;15.17;59.61
73633;BME280;61927;50.080;14.418;2023-06-14T06:35:13;99418.44;;;15.01;60.38
73633;BME280;61927;50.080;14.418;2023-06-14T06:37:40;99420.75;;;14.95;60.71
73633;BME280;61927;50.080;14.418;2023-06-14T06:40:07;99420.03;;;14.93;60.75
73633;BME280;61927;50.080;14.418;2023-06-14T06:42:33;99423.19;;;14.98;61.08
73633;BME280;61927;50.080;14.418;2023-06-14T06:45:00;99415.28;;;14.96;60.83
73633;BME280;61927;50.080;14.418;2023-06-14T06:47:26;99416.16;;;14.97;61.13
73633;BME280;61927;50.080;14.418;2023-06-14T06:49:51;99425.84;;;15.09;60.91
73633;BME280;61927;50.080;14.418;2023-06-14T06:52:17;99420.72;;;15.17;60.59
73633;BME280;61927;50.080;14.418;2023-06-14T06:54:43;99428.72;;;15.28;60.36
73633;BME280;61927;50.080;14.418;2023-06-14T06:57:09;99428.34;;;15.33;59.90
73633;BME280;61927;50.080;14.418;2023-06-14T06:59:36;99425.28;;;15.37;59.55
73633;BME280;61927;50.080;14.418;2023-06-14T07:02:02;99427.34;;;15.45;59.28
73633;BME280;61927;50.080;14.418;2023-06-14T07:04:28;99431.59;;;15.47;59.15
73633;BME280;61927;50.080;14.418;2023-06-14T07:06:54;99436.19;;;15.57;58.75
73633;BME280;61927;50.080;14.418;2023-06-14T07:09:20;99438.00;;;15.67;58.00
73633;BME280;61927;50.080;14.418;2023-06-14T07:11:47;99442.91;;;15.83;58.07
73633;BME280;61927;50.080;14.418;2023-06-14T07:14:13;99443.13;;;15.91;58.39
73633;BME280;61927;50.080;14.418;2023-06-14T07:16:38;99442.47;;;15.99;57.38
73633;BME280;61927;50.080;14.418;2023-06-14T07:19:05;99442.94;;;16.04;57.52
73633;BME280;61927;50.080;14.418;2023-06-14T07:21:30;99448.63;;;16.10;56.97
73633;BME280;61927;50.080;14.418;2023-06-14T07:23:56;99442.03;;;16.14;57.22
73633;BME280;61927;50.080;14.418;2023-06-14T07:26:22;99448.19;;;16.26;57.11
73633;BME280;61927;50.080;14.418;2023-06-14T07:28:48;99444.84;;;16.34;56.82
73633;BME280;61927;50.080;14.418;2023-06-14T07:31:15;99437.91;;;16.52;57.07
73633;BME280;61927;50.080;14.418;2023-06-14T07:33:41;99437.25;;;16.60;55.84
73633;BME280;61927;50.080;14.418;2023-06-14T07:36:07;99446.00;;;16.62;56.00
73633;BME280;61927;50.080;14.418;2023-06-14T07:38:33;99444.88;;;16.64;55.80
73633;BME280;61927;50.080;14.418;2023-06-14T07:40:59;99447.94;;;16.60;55.86
73633;BME280;61927;50.080;14.418;2023-06-14T07:43:25;99445.41;;;16.58;56.15
73633;BME280;61927;50.080;14.418;2023-06-14T07:45:51;99446.59;;;16.65;55.83
73633;BME280;61927;50.080;14.418;2023-06-14T07:48:17;99442.13;;;16.75;55.19
73633;BME280;61927;50.080;14.418;2023-06-14T07:50:43;99446.16;;;16.91;54.78
73633;BME280;61927;50.080;14.418;2023-06-14T07:53:08;99452.84;;;17.06;53.85
73633;BME280;61927;50.080;14.418;2023-06-14T07:55:34;99454.53;;;17.07;53.69
73633;BME280;61927;50.080;14.418;2023-06-14T07:58:03;99458.47;;;17.03;53.97
73633;BME280;61927;50.080;14.418;2023-06-14T08:00:28;99448.31;;;17.06;53.55
73633;BME280;61927;50.080;14.418;2023-06-14T08:02:54;99455.69;;;17.14;53.81
73633;BME280;61927;50.080;14.418;2023-06-14T08:05:24;99439.22;;;17.28;53.40
73633;BME280;61927;50.080;14.418;2023-06-14T08:07:51;99453.09;;;17.43;52.76
73633;BME280;61927;50.080;14.418;2023-06-14T08:10:17;99448.59;;;17.63;51.84
73633;BME280;61927;50.080;14.418;2023-06-14T08:12:43;99446.25;;;17.79;51.55
73633;BME280;61927;50.080;14.418;2023-06-14T08:15:09;99446.53;;;17.95;51.40
73633;BME280;61927;50.080;14.418;2023-06-14T08:17:35;99456.28;;;17.96;51.14
73633;BME280;61927;50.080;14.418;2023-06-14T08:20:02;99454.72;;;18.03;51.25
73633;BME280;61927;50.080;14.418;2023-06-14T08:22:31;99457.25;;;18.15;51.89
73633;BME280;61927;50.080;14.418;2023-06-14T08:25:02;99456.38;;;18.33;50.02
73633;BME280;61927;50.080;14.418;2023-06-14T08:27:29;99453.09;;;18.49;47.29
73633;BME280;61927;50.080;14.418;2023-06-14T08:29:55;99447.56;;;18.70;47.05
73633;BME280;61927;50.080;14.418;2023-06-14T08:32:22;99451.03;;;18.90;46.34
73633;BME280;61927;50.080;14.418;2023-06-14T08:34:48;99442.22;;;18.97;46.50
73633;BME280;61927;50.080;14.418;2023-06-14T08:37:13;99441.03;;;19.10;45.59
73633;BME280;61927;50.080;14.418;2023-06-14T08:39:39;99448.34;;;19.17;43.91
73633;BME280;61927;50.080;14.418;2023-06-14T08:42:07;99447.19;;;19.20;44.18
73633;BME280;61927;50.080;14.418;2023-06-14T08:44:34;99445.38;;;19.20;43.93
73633;BME280;61927;50.080;14.418;2023-06-14T08:47:00;99446.81;;;19.15;44.09
73633;BME280;61927;50.080;14.418;2023-06-14T08:49:26;99449.53;;;19.05;43.90
73633;BME280;61927;50.080;14.418;2023-06-14T08:51:59;99454.97;;;18.95;44.51
73633;BME280;61927;50.080;14.418;2023-06-14T08:54:29;99451.28;;;18.96;45.58
73633;BME280;61927;50.080;14.418;2023-06-14T08:56:57;99460.38;;;18.86;46.35
73633;BME280;61927;50.080;14.418;2023-06-14T08:59:25;99449.50;;;18.78;46.42
73633;BME280;61927;50.080;14.418;2023-06-14T09:01:52;99456.22;;;18.64;47.29
73633;BME280;61927;50.080;14.418;2023-06-14T09:04:20;99456.34;;;18.62;46.39
73633;BME280;61927;50.080;14.418;2023-06-14T09:06:47;99458.16;;;18.71;45.29
73633;BME280;61927;50.080;14.418;2023-06-14T09:09:22;99454.75;;;18.79;44.31
73633;BME280;61927;50.080;14.418;2023-06-14T09:11:50;99457.69;;;18.86;44.42
73633;BME280;61927;50.080;14.418;2023-06-14T09:14:17;99451.13;;;18.98;44.94
73633;BME280;61927;50.080;14.418;2023-06-14T09:16:43;99459.16;;;19.08;44.98
73633;BME280;61927;50.080;14.418;2023-06-14T09:19:14;99459.06;;;19.27;43.52
73633;BME280;61927;50.080;14.418;2023-06-14T09:21:47;99455.09;;;19.49;43.41
73633;BME280;61927;50.080;14.418;2023-06-14T09:24:14;99458.63;;;19.59;43.31
73633;BME280;61927;50.080;14.418;2023-06-14T09:26:40;99456.06;;;19.57;43.93
73633;BME280;61927;50.080;14.418;2023-06-14T09:29:06;99460.41;;;19.68;43.46
73633;BME280;61927;50.080;14.418;2023-06-14T09:31:32;99458.63;;;19.77;42.57
73633;BME280;61927;50.080;14.418;2023-06-14T09:33:58;99445.09;;;19.86;42.67
73633;BME280;61927;50.080;14.418;2023-06-14T09:36:27;99450.25;;;19.80;42.24
73633;BME280;61927;50.080;14.418;2023-06-14T09:41:20;99458.78;;;19.75;41.79
73633;BME280;61927;50.080;14.418;2023-06-14T09:43:46;99462.88;;;19.79;42.74
73633;BME280;61927;50.080;14.418;2023-06-14T09:46:13;99453.88;;;19.88;42.91
73633;BME280;61927;50.080;14.418;2023-06-14T09:48:38;99439.78;;;19.94;42.63
73633;BME280;61927;50.080;14.418;2023-06-14T09:51:13;99439.56;;;19.88;44.29
73633;BME280;61927;50.080;14.418;2023-06-14T09:53:41;99443.94;;;19.71;44.42
73633;BME280;61927;50.080;14.418;2023-06-14T09:56:09;99432.00;;;19.56;44.46
73633;BME280;61927;50.080;14.418;2023-06-14T09:58:39;99439.78;;;19.59;44.56
73633;BME280;61927;50.080;14.418;2023-06-14T10:01:08;99439.09;;;19.75;43.80
73633;BME280;61927;50.080;14.418;2023-06-14T10:03:34;99433.31;;;19.70;43.71
73633;BME280;61927;50.080;14.418;2023-06-14T10:06:02;99435.78;;;19.81;43.99
73633;BME280;61927;50.080;14.418;2023-06-14T10:08:30;99438.16;;;19.84;42.96
73633;BME280;61927;50.080;14.418;2023-06-14T10:10:58;99429.25;;;19.65;43.81
73633;BME280;61927;50.080;14.418;2023-06-14T10:13:26;99432.41;;;19.79;43.03
73633;BME280;61927;50.080;14.418;2023-06-14T10:16:00;99427.78;;;19.89;42.26
73633;BME280;61927;50.080;14.418;2023-06-14T10:24:15;99423.63;;;19.31;42.06
73633;BME280;61927;50.080;14.418;2023-06-14T10:27:10;99423.19;;;19.09;43.08
73633;BME280;61927;50.080;14.418;2023-06-14T10:32:20;99423.94;;;19.01;43.38
73633;BME280;61927;50.080;14.418;2023-06-14T10:34:53;99418.25;;;19.31;43.05
73633;BME280;61927;50.080;14.418;2023-06-14T10:37:20;99417.34;;;19.41;42.78
73633;BME280;61927;50.080;14.418;2023-06-14T10:39:46;99419.53;;;19.55;43.56
73633;BME280;61927;50.080;14.418;2023-06-14T10:42:15;99420.56;;;19.44;41.80
73633;BME280;61927;50.080;14.418;2023-06-14T10:44:42;99415.34;;;19.43;42.18
73633;BME280;61927;50.080;14.418;2023-06-14T10:47:26;99420.63;;;19.62;41.68
73633;BME280;61927;50.080;14.418;2023-06-14T10:49:52;99415.47;;;19.68;40.85
73633;BME280;61927;50.080;14.418;2023-06-14T10:52:22;99412.72;;;19.78;41.56
73633;BME280;61927;50.080;14.418;2023-06-14T10:55:11;99420.16;;;19.84;40.06
73633;BME280;61927;50.080;14.418;2023-06-14T11:00:06;99406.97;;;20.17;39.08
73633;BME280;61927;50.080;14.418;2023-06-14T11:02:51;99400.94;;;20.23;41.14
73633;BME280;61927;50.080;14.418;2023-06-14T11:05:27;99400.34;;;20.11;38.85
73633;BME280;61927;50.080;14.418;2023-06-14T11:10:38;99399.66;;;20.09;39.76
73633;BME280;61927;50.080;14.418;2023-06-14T11:13:04;99395.25;;;20.26;39.01
73633;BME280;61927;50.080;14.418;2023-06-14T11:15:31;99391.19;;;20.22;38.71
73633;BME280;61927;50.080;14.418;2023-06-14T11:17:59;99395.59;;;20.05;39.58
73633;BME280;61927;50.080;14.418;2023-06-14T11:20:26;99398.06;;;19.98;40.01
73633;BME280;61927;50.080;14.418;2023-06-14T11:22:52;99405.69;;;20.03;40.54
73633;BME280;61927;50.080;14.418;2023-06-14T11:25:19;99404.75;;;20.12;40.77
73633;BME280;61927;50.080;14.418;2023-06-14T11:27:45;99397.63;;;20.29;40.25
73633;BME280;61927;50.080;14.418;2023-06-14T11:30:13;99396.75;;;20.46;39.41
73633;BME280;61927;50.080;14.418;2023-06-14T11:32:39;99397.13;;;20.51;38.72
73633;BME280;61927;50.080;14.418;2023-06-14T11:35:06;99394.44;;;20.51;38.60
73633;BME280;61927;50.080;14.418;2023-06-14T11:37:32;99396.66;;;20.56;37.80
73633;BME280;61927;50.080;14.418;2023-06-14T11:40:03;99392.47;;;20.95;38.33
73633;BME280;61927;50.080;14.418;2023-06-14T11:42:38;99387.16;;;20.78;36.85
73633;BME280;61927;50.080;14.418;2023-06-14T11:45:07;99382.56;;;20.70;37.03
73633;BME280;61927;50.080;14.418;2023-06-14T11:47:35;99374.53;;;20.78;36.85
73633;BME280;61927;50.080;14.418;2023-06-14T11:50:01;99372.41;;;20.98;36.25
73633;BME280;61927;50.080;14.418;2023-06-14T11:52:28;99382.22;;;20.65;36.35
73633;BME280;61927;50.080;14.418;2023-06-14T11:54:54;99376.41;;;20.52;36.76
73633;BME280;61927;50.080;14.418;2023-06-14T11:57:20;99372.28;;;20.66;37.76
73633;BME280;61927;50.080;14.418;2023-06-14T11:59:46;99379.41;;;20.75;37.50
73633;BME280;61927;50.080;14.418;2023-06-14T12:02:15;99373.19;;;20.82;36.73
73633;BME280;61927;50.080;14.418;2023-06-14T12:04:48;99374.19;;;20.81;36.47
73633;BME280;61927;50.080;14.418;2023-06-14T12:07:15;99371.81;;;20.78;36.11
73633;BME280;61927;50.080;14.418;2023-06-14T12:12:28;99362.59;;;20.89;35.63
73633;BME280;61927;50.080;14.418;2023-06-14T12:14:57;99366.38;;;21.04;35.72
73633;BME280;61927;50.080;14.418;2023-06-14T12:17:22;99361.25;;;20.93;34.98
73633;BME280;61927;50.080;14.418;2023-06-14T12:19:49;99368.84;;;20.89;35.12
73633;BME280;61927;50.080;14.418;2023-06-14T12:22:16;99367.03;;;21.06;35.74
73633;BME280;61927;50.080;14.418;2023-06-14T12:24:45;99366.13;;;21.32;35.87
73633;BME280;61927;50.080;14.418;2023-06-14T12:27:12;99372.41;;;21.56;36.71
73633;BME280;61927;50.080;14.418;2023-06-14T12:29:41;99364.63;;;21.29;36.97
73633;BME280;61927;50.080;14.418;2023-06-14T12:32:09;99375.69;;;21.18;37.96
73633;BME280;61927;50.080;14.418;2023-06-14T12:34:35;99373.34;;;20.81;38.19
73633;BME280;61927;50.080;14.418;2023-06-14T12:37:01;99386.75;;;20.64;38.80
73633;BME280;61927;50.080;14.418;2023-06-14T12:39:28;99377.91;;;20.28;39.10
73633;BME280;61927;50.080;14.418;2023-06-14T12:41:55;99377.53;;;20.23;39.57
73633;BME280;61927;50.080;14.418;2023-06-14T12:44:21;99370.72;;;20.37;39.48
73633;BME280;61927;50.080;14.418;2023-06-14T12:46:47;99375.69;;;20.42;39.26
73633;BME280;61927;50.080;14.418;2023-06-14T12:49:12;99377.75;;;20.30;39.22
73633;BME280;61927;50.080;14.418;2023-06-14T12:51:39;99377.75;;;20.30;38.87
73633;BME280;61927;50.080;14.418;2023-06-14T12:54:05;99382.59;;;20.44;39.11
73633;BME280;61927;50.080;14.418;2023-06-14T12:56:31;99378.50;;;20.66;38.38
73633;BME280;61927;50.080;14.418;2023-06-14T12:58:58;99383.41;;;20.71;38.36
73633;BME280;61927;50.080;14.418;2023-06-14T13:01:24;99370.16;;;20.51;38.85
73633;BME280;61927;50.080;14.418;2023-06-14T13:03:49;99370.28;;;20.42;39.00
73633;BME280;61927;50.080;14.418;2023-06-14T13:06:22;99378.25;;;20.51;38.90
73633;BME280;61927;50.080;14.418;2023-06-14T13:08:48;99376.81;;;20.65;38.35
73633;BME280;61927;50.080;14.418;2023-06-14T13:11:14;99378.78;;;20.55;38.17